sensor_id;sensor_type;location;lat;lon;timestamp;temperature;humidity
49052;DHT22;34866;48.670;18.260;2023-04-24T00:00:16;282.40;6528.00
49052;DHT22;34866;48.670;18.260;2023-04-24T00:02:43;282.40;6528.00
49052;DHT22;34866;48.670;18.260;2023-04-24T00:05:15;282.50;6528.00
49052;DHT22;34866;48.670;18.260;2023-04-24T00:07:41;282.20;6528.00
49052;DHT22;34866;48.670;18.260;2023-04-24T00:10:08;282.00;6528.00
49052;DHT22;34866;48.670;18.260;2023-04-24T00:12:35;281.90;6528.00
49052;DHT22;34866;48.670;18.260;2023-04-24T00:15:01;282.10;6528.00
49052;DHT22;34866;48.670;18.260;2023-04-24T00:17:27;282.20;6528.00
49052;DHT22;34866;48.670;18.260;2023-04-24T00:19:53;282.20;6528.00
49052;DHT22;34866;48.670;18.260;2023-04-24T00:22:25;282.50;6528.00
49052;DHT22;34866;48.670;18.260;2023-04-24T00:24:51;282.40;6528.00
49052;DHT22;34866;48.670;18.260;2023-04-24T00:27:17;307.20;128.00
49052;DHT22;34866;48.670;18.260;2023-04-24T00:29:44;307.30;128.00
49052;DHT22;34866;48.670;18.260;2023-04-24T00:32:10;282.50;6528.00
49052;DHT22;34866;48.670;18.260;2023-04-24T00:34:35;282.50;6528.00
49052;DHT22;34866;48.670;18.260;2023-04-24T00:37:02;307.20;128.00
49052;DHT22;34866;48.670;18.260;2023-04-24T00:39:28;282.50;6528.00
49052;DHT22;34866;48.670;18.260;2023-04-24T00:41:53;282.50;6528.00
49052;DHT22;34866;48.670;18.260;2023-04-24T00:44:20;307.20;128.00
49052;DHT22;34866;48.670;18.260;2023-04-24T00:46:46;282.50;6528.00
49052;DHT22;34866;48.670;18.260;2023-04-24T00:49:13;282.30;6528.00
49052;DHT22;34866;48.670;18.260;2023-04-24T00:51:40;282.50;6528.00
49052;DHT22;34866;48.670;18.260;2023-04-24T00:54:06;282.50;6528.00
49052;DHT22;34866;48.670;18.260;2023-04-24T00:56:32;307.30;128.00
49052;DHT22;34866;48.670;18.260;2023-04-24T00:58:58;307.30;128.00
49052;DHT22;34866;48.670;18.260;2023-04-24T01:01:24;282.40;6528.00
49052;DHT22;34866;48.670;18.260;2023-04-24T01:03:51;282.50;6528.00
49052;DHT22;34866;48.670;18.260;2023-04-24T01:06:17;307.30;128.00
49052;DHT22;34866;48.670;18.260;2023-04-24T01:08:46;307.30;128.00
49052;DHT22;34866;48.670;18.260;2023-04-24T01:11:14;307.20;128.00
49052;DHT22;34866;48.670;18.260;2023-04-24T01:13:47;307.90;128.00
49052;DHT22;34866;48.670;18.260;2023-04-24T01:16:14;332.90;128.00
49052;DHT22;34866;48.670;18.260;2023-04-24T01:18:43;332.90;128.00
49052;DHT22;34866;48.670;18.260;2023-04-24T01:21:09;332.80;128.00
49052;DHT22;34866;48.670;18.260;2023-04-24T01:23:38;333.20;128.00
49052;DHT22;34866;48.670;18.260;2023-04-24T01:26:04;333.40;128.00
49052;DHT22;34866;48.670;18.260;2023-04-24T01:28:30;333.30;128.00
49052;DHT22;34866;48.670;18.260;2023-04-24T01:30:56;333.20;128.00
49052;DHT22;34866;48.670;18.260;2023-04-24T01:33:22;333.30;128.00
49052;DHT22;34866;48.670;18.260;2023-04-24T01:35:49;333.40;128.00
49052;DHT22;34866;48.670;18.260;2023-04-24T01:38:14;333.40;128.00
49052;DHT22;34866;48.670;18.260;2023-04-24T01:40:41;333.40;128.00
49052;DHT22;34866;48.670;18.260;2023-04-24T01:43:07;333.60;128.00
49052;DHT22;34866;48.670;18.260;2023-04-24T01:45:33;333.70;128.00
49052;DHT22;34866;48.670;18.260;2023-04-24T01:47:59;333.70;128.00
49052;DHT22;34866;48.670;18.260;2023-04-24T01:50:25;358.50;128.00
49052;DHT22;34866;48.670;18.260;2023-04-24T01:52:51;358.40;128.00
49052;DHT22;34866;48.670;18.260;2023-04-24T01:55:17;333.60;128.00
49052;DHT22;34866;48.670;18.260;2023-04-24T01:57:43;333.60;128.00
49052;DHT22;34866;48.670;18.260;2023-04-24T02:00:09;333.60;128.00
49052;DHT22;34866;48.670;18.260;2023-04-24T02:02:38;333.50;128.00
49052;DHT22;34866;48.670;18.260;2023-04-24T02:05:06;333.50;128.00
49052;DHT22;34866;48.670;18.260;2023-04-24T02:07:32;333.50;128.00
49052;DHT22;34866;48.670;18.260;2023-04-24T02:09:58;333.50;128.00
49052;DHT22;34866;48.670;18.260;2023-04-24T02:12:24;333.20;128.00
49052;DHT22;34866;48.670;18.260;2023-04-24T02:14:50;333.00;128.00
49052;DHT22;34866;48.670;18.260;2023-04-24T02:17:15;333.00;128.00
49052;DHT22;34866;48.670;18.260;2023-04-24T02:19:43;332.80;128.00
49052;DHT22;34866;48.670;18.260;2023-04-24T02:22:08;332.90;128.00
49052;DHT22;34866;48.670;18.260;2023-04-24T02:24:36;333.00;128.00
49052;DHT22;34866;48.670;18.260;2023-04-24T02:27:01;332.90;128.00
49052;DHT22;34866;48.670;18.260;2023-04-24T02:29:28;332.90;128.00
49052;DHT22;34866;48.670;18.260;2023-04-24T02:31:54;332.90;128.00
49052;DHT22;34866;48.670;18.260;2023-04-24T02:34:19;332.80;307.20
49052;DHT22;34866;48.670;18.260;2023-04-24T02:36:45;332.80;128.00
49052;DHT22;34866;48.670;18.260;2023-04-24T02:39:11;308.10;128.00
49052;DHT22;34866;48.670;18.260;2023-04-24T02:41:36;307.90;128.00
49052;DHT22;34866;48.670;18.260;2023-04-24T02:44:02;308.10;128.00
49052;DHT22;34866;48.670;18.260;2023-04-24T02:46:28;307.90;128.00
49052;DHT22;34866;48.670;18.260;2023-04-24T02:48:53;307.90;128.00
49052;DHT22;34866;48.670;18.260;2023-04-24T02:51:19;307.70;128.00
49052;DHT22;34866;48.670;18.260;2023-04-24T02:53:45;307.50;128.00
49052;DHT22;34866;48.670;18.260;2023-04-24T02:56:10;307.50;128.00
49052;DHT22;34866;48.670;18.260;2023-04-24T02:58:43;307.30;128.00
49052;DHT22;34866;48.670;18.260;2023-04-24T03:01:08;307.30;128.00
49052;DHT22;34866;48.670;18.260;2023-04-24T03:03:36;282.50;6528.00
49052;DHT22;34866;48.670;18.260;2023-04-24T03:06:02;282.50;256.00
49052;DHT22;34866;48.670;18.260;2023-04-24T03:08:27;282.40;128.00
49052;DHT22;34866;48.670;18.260;2023-04-24T03:10:53;282.40;6528.00
49052;DHT22;34866;48.670;18.260;2023-04-24T03:13:19;282.40;128.00
49052;DHT22;34866;48.670;18.260;2023-04-24T03:15:45;282.30;6528.00
49052;DHT22;34866;48.670;18.260;2023-04-24T03:18:11;282.20;665.60
49052;DHT22;34866;48.670;18.260;2023-04-24T03:20:37;281.90;2278.40
49052;DHT22;34866;48.670;18.260;2023-04-24T03:23:03;281.90;2252.80
49052;DHT22;34866;48.670;18.260;2023-04-24T03:25:29;282.00;2278.40
49052;DHT22;34866;48.670;18.260;2023-04-24T03:27:54;281.90;2278.40
49052;DHT22;34866;48.670;18.260;2023-04-24T03:30:20;282.10;2073.60
49052;DHT22;34866;48.670;18.260;2023-04-24T03:32:47;282.10;2278.40
49052;DHT22;34866;48.670;18.260;2023-04-24T03:35:13;282.20;2278.40
49052;DHT22;34866;48.670;18.260;2023-04-24T03:37:39;282.10;1945.60
49052;DHT22;34866;48.670;18.260;2023-04-24T03:40:05;282.10;2227.20
49052;DHT22;34866;48.670;18.260;2023-04-24T03:42:32;282.20;2278.40
49052;DHT22;34866;48.670;18.260;2023-04-24T03:44:58;282.00;2278.40
49052;DHT22;34866;48.670;18.260;2023-04-24T03:47:23;281.80;2278.40
49052;DHT22;34866;48.670;18.260;2023-04-24T03:49:49;282.00;2278.40
49052;DHT22;34866;48.670;18.260;2023-04-24T03:52:15;282.10;2227.20
49052;DHT22;34866;48.670;18.260;2023-04-24T03:54:41;282.40;844.80
49052;DHT22;34866;48.670;18.260;2023-04-24T03:57:06;307.40;128.00
49052;DHT22;34866;48.670;18.260;2023-04-24T03:59:32;307.60;128.00
49052;DHT22;34866;48.670;18.260;2023-04-24T04:01:58;307.60;128.00
49052;DHT22;34866;48.670;18.260;2023-04-24T04:04:23;307.60;128.00
49052;DHT22;34866;48.670;18.260;2023-04-24T04:06:49;307.60;128.00
49052;DHT22;34866;48.670;18.260;2023-04-24T04:09:15;307.60;128.00
49052;DHT22;34866;48.670;18.260;2023-04-24T04:11:42;307.60;128.00
49052;DHT22;34866;48.670;18.260;2023-04-24T04:14:07;307.70;128.00
49052;DHT22;34866;48.670;18.260;2023-04-24T04:16:33;307.70;128.00
49052;DHT22;34866;48.670;18.260;2023-04-24T04:18:59;307.60;128.00
49052;DHT22;34866;48.670;18.260;2023-04-24T04:21:24;307.70;128.00
49052;DHT22;34866;48.670;18.260;2023-04-24T04:23:51;307.60;128.00
49052;DHT22;34866;48.670;18.260;2023-04-24T04:26:17;307.60;128.00
49052;DHT22;34866;48.670;18.260;2023-04-24T04:28:44;307.50;128.00
49052;DHT22;34866;48.670;18.260;2023-04-24T04:31:10;307.50;128.00
49052;DHT22;34866;48.670;18.260;2023-04-24T04:33:35;307.50;128.00
49052;DHT22;34866;48.670;18.260;2023-04-24T04:36:03;307.30;128.00
49052;DHT22;34866;48.670;18.260;2023-04-24T04:38:29;307.30;128.00
49052;DHT22;34866;48.670;18.260;2023-04-24T04:40:55;307.30;128.00
49052;DHT22;34866;48.670;18.260;2023-04-24T04:43:24;307.40;128.00
49052;DHT22;34866;48.670;18.260;2023-04-24T04:45:50;307.40;256.00
49052;DHT22;34866;48.670;18.260;2023-04-24T04:48:20;307.50;128.00
49052;DHT22;34866;48.670;18.260;2023-04-24T04:50:45;307.40;512.00
49052;DHT22;34866;48.670;18.260;2023-04-24T04:53:12;307.40;409.60
49052;DHT22;34866;48.670;18.260;2023-04-24T04:55:38;307.40;128.00
49052;DHT22;34866;48.670;18.260;2023-04-24T04:58:04;307.40;128.00
49052;DHT22;34866;48.670;18.260;2023-04-24T05:00:29;307.40;204.80
49052;DHT22;34866;48.670;18.260;2023-04-24T05:03:01;307.40;128.00
49052;DHT22;34866;48.670;18.260;2023-04-24T05:05:27;307.20;870.40
49052;DHT22;34866;48.670;18.260;2023-04-24T05:07:53;307.40;640.00
49052;DHT22;34866;48.670;18.260;2023-04-24T05:10:19;307.50;128.00
49052;DHT22;34866;48.670;18.260;2023-04-24T05:12:44;307.50;128.00
49052;DHT22;34866;48.670;18.260;2023-04-24T05:15:10;307.40;128.00
49052;DHT22;34866;48.670;18.260;2023-04-24T05:17:36;307.60;128.00
49052;DHT22;34866;48.670;18.260;2023-04-24T05:20:03;307.70;128.00
49052;DHT22;34866;48.670;18.260;2023-04-24T05:22:31;307.90;128.00
49052;DHT22;34866;48.670;18.260;2023-04-24T05:24:57;307.70;128.00
49052;DHT22;34866;48.670;18.260;2023-04-24T05:27:23;307.80;128.00
49052;DHT22;34866;48.670;18.260;2023-04-24T05:29:48;307.90;128.00
49052;DHT22;34866;48.670;18.260;2023-04-24T05:32:14;307.90;128.00
49052;DHT22;34866;48.670;18.260;2023-04-24T05:34:39;307.90;128.00
49052;DHT22;34866;48.670;18.260;2023-04-24T05:37:05;307.90;128.00
49052;DHT22;34866;48.670;18.260;2023-04-24T05:39:34;307.80;128.00
49052;DHT22;34866;48.670;18.260;2023-04-24T05:42:00;307.70;128.00
49052;DHT22;34866;48.670;18.260;2023-04-24T05:44:26;307.60;128.00
49052;DHT22;34866;48.670;18.260;2023-04-24T05:46:52;307.50;1100.80
49052;DHT22;34866;48.670;18.260;2023-04-24T05:49:18;307.60;1612.80
49052;DHT22;34866;48.670;18.260;2023-04-24T05:51:45;307.40;1177.60
49052;DHT22;34866;48.670;18.260;2023-04-24T05:54:11;307.70;128.00
49052;DHT22;34866;48.670;18.260;2023-04-24T05:56:39;307.70;230.40
49052;DHT22;34866;48.670;18.260;2023-04-24T05:59:05;307.80;1049.60
49052;DHT22;34866;48.670;18.260;2023-04-24T06:01:31;307.70;128.00
49052;DHT22;34866;48.670;18.260;2023-04-24T06:04:00;307.90;128.00
49052;DHT22;34866;48.670;18.260;2023-04-24T06:06:26;307.90;128.00
49052;DHT22;34866;48.670;18.260;2023-04-24T06:08:52;307.90;128.00
49052;DHT22;34866;48.670;18.260;2023-04-24T06:11:18;307.90;128.00
49052;DHT22;34866;48.670;18.260;2023-04-24T06:13:44;308.00;128.00
49052;DHT22;34866;48.670;18.260;2023-04-24T06:16:10;308.10;128.00
49052;DHT22;34866;48.670;18.260;2023-04-24T06:18:35;332.80;128.00
49052;DHT22;34866;48.670;18.260;2023-04-24T06:21:01;332.80;128.00
49052;DHT22;34866;48.670;18.260;2023-04-24T06:23:27;332.80;128.00
49052;DHT22;34866;48.670;18.260;2023-04-24T06:25:53;332.80;128.00
49052;DHT22;34866;48.670;18.260;2023-04-24T06:28:18;332.90;128.00
49052;DHT22;34866;48.670;18.260;2023-04-24T06:30:44;333.00;128.00
49052;DHT22;34866;48.670;18.260;2023-04-24T06:33:10;333.10;128.00
49052;DHT22;34866;48.670;18.260;2023-04-24T06:35:36;333.10;128.00
49052;DHT22;34866;48.670;18.260;2023-04-24T06:38:03;333.10;128.00
49052;DHT22;34866;48.670;18.260;2023-04-24T06:40:28;333.50;128.00
49052;DHT22;34866;48.670;18.260;2023-04-24T06:42:54;333.70;614.40
49052;DHT22;34866;48.670;18.260;2023-04-24T06:45:20;333.70;153.60
49052;DHT22;34866;48.670;18.260;2023-04-24T06:47:46;333.70;230.40
49052;DHT22;34866;48.670;18.260;2023-04-24T06:50:12;358.40;128.00
49052;DHT22;34866;48.670;18.260;2023-04-24T06:52:38;358.40;128.00
49052;DHT22;34866;48.670;18.260;2023-04-24T06:55:04;358.50;128.00
49052;DHT22;34866;48.670;18.260;2023-04-24T06:57:30;358.40;537.60
49052;DHT22;34866;48.670;18.260;2023-04-24T06:59:57;358.40;128.00
49052;DHT22;34866;48.670;18.260;2023-04-24T07:02:24;358.40;128.00
49052;DHT22;34866;48.670;18.260;2023-04-24T07:04:50;358.40;128.00
49052;DHT22;34866;48.670;18.260;2023-04-24T07:07:16;358.40;128.00
49052;DHT22;34866;48.670;18.260;2023-04-24T07:09:42;358.50;128.00
49052;DHT22;34866;48.670;18.260;2023-04-24T07:12:11;358.60;128.00
49052;DHT22;34866;48.670;18.260;2023-04-24T07:14:37;358.60;128.00
49052;DHT22;34866;48.670;18.260;2023-04-24T07:17:04;358.60;128.00
49052;DHT22;34866;48.670;18.260;2023-04-24T07:19:37;358.60;128.00
49052;DHT22;34866;48.670;18.260;2023-04-24T07:22:03;358.60;128.00
49052;DHT22;34866;48.670;18.260;2023-04-24T07:24:29;358.60;128.00
49052;DHT22;34866;48.670;18.260;2023-04-24T07:26:57;358.70;128.00
49052;DHT22;34866;48.670;18.260;2023-04-24T07:29:23;358.80;128.00
49052;DHT22;34866;48.670;18.260;2023-04-24T07:31:50;358.80;128.00
49052;DHT22;34866;48.670;18.260;2023-04-24T07:34:15;358.80;128.00
49052;DHT22;34866;48.670;18.260;2023-04-24T07:36:41;358.80;128.00
49052;DHT22;34866;48.670;18.260;2023-04-24T07:39:07;358.90;128.00
49052;DHT22;34866;48.670;18.260;2023-04-24T07:41:34;358.80;128.00
49052;DHT22;34866;48.670;18.260;2023-04-24T07:44:00;358.80;128.00
49052;DHT22;34866;48.670;18.260;2023-04-24T07:46:26;358.90;128.00
49052;DHT22;34866;48.670;18.260;2023-04-24T07:48:55;358.90;128.00
49052;DHT22;34866;48.670;18.260;2023-04-24T07:51:21;358.80;128.00
49052;DHT22;34866;48.670;18.260;2023-04-24T07:53:46;358.80;128.00
49052;DHT22;34866;48.670;18.260;2023-04-24T07:56:12;358.80;128.00
49052;DHT22;34866;48.670;18.260;2023-04-24T07:58:38;358.80;128.00
49052;DHT22;34866;48.670;18.260;2023-04-24T08:01:03;358.80;128.00
49052;DHT22;34866;48.670;18.260;2023-04-24T08:03:30;358.80;128.00
49052;DHT22;34866;48.670;18.260;2023-04-24T08:05:56;358.80;128.00
49052;DHT22;34866;48.670;18.260;2023-04-24T08:08:22;358.70;128.00
49052;DHT22;34866;48.670;18.260;2023-04-24T08:10:49;358.70;128.00
49052;DHT22;34866;48.670;18.260;2023-04-24T08:13:14;358.60;128.00
49052;DHT22;34866;48.670;18.260;2023-04-24T08:15:40;358.60;179.20
49052;DHT22;34866;48.670;18.260;2023-04-24T08:18:06;358.70;128.00
49052;DHT22;34866;48.670;18.260;2023-04-24T08:20:32;358.70;128.00
49052;DHT22;34866;48.670;18.260;2023-04-24T08:22:57;358.70;128.00
49052;DHT22;34866;48.670;18.260;2023-04-24T08:25:23;358.70;128.00
49052;DHT22;34866;48.670;18.260;2023-04-24T08:27:50;358.80;128.00
49052;DHT22;34866;48.670;18.260;2023-04-24T08:30:16;358.80;128.00
49052;DHT22;34866;48.670;18.260;2023-04-24T08:32:42;359.10;128.00
49052;DHT22;34866;48.670;18.260;2023-04-24T08:35:08;359.10;128.00
49052;DHT22;34866;48.670;18.260;2023-04-24T08:37:35;359.30;128.00
49052;DHT22;34866;48.670;18.260;2023-04-24T08:40:02;359.30;537.60
49052;DHT22;34866;48.670;18.260;2023-04-24T08:42:34;384.00;307.20
49052;DHT22;34866;48.670;18.260;2023-04-24T08:45:02;384.10;563.20
49052;DHT22;34866;48.670;18.260;2023-04-24T08:47:31;384.30;128.00
49052;DHT22;34866;48.670;18.260;2023-04-24T08:50:04;384.20;588.80
49052;DHT22;34866;48.670;18.260;2023-04-24T08:52:32;384.40;128.00
49052;DHT22;34866;48.670;18.260;2023-04-24T08:55:00;384.20;435.20
49052;DHT22;34866;48.670;18.260;2023-04-24T08:57:27;384.30;153.60
49052;DHT22;34866;48.670;18.260;2023-04-24T08:59:54;384.50;128.00
49052;DHT22;34866;48.670;18.260;2023-04-24T09:02:21;384.40;128.00
49052;DHT22;34866;48.670;18.260;2023-04-24T09:04:49;384.60;128.00
49052;DHT22;34866;48.670;18.260;2023-04-24T09:07:16;384.60;128.00
49052;DHT22;34866;48.670;18.260;2023-04-24T09:09:43;384.50;128.00
49052;DHT22;34866;48.670;18.260;2023-04-24T09:12:09;384.70;128.00
49052;DHT22;34866;48.670;18.260;2023-04-24T09:14:36;384.80;128.00
49052;DHT22;34866;48.670;18.260;2023-04-24T09:17:06;384.80;128.00
49052;DHT22;34866;48.670;18.260;2023-04-24T09:19:31;384.90;128.00
49052;DHT22;34866;48.670;18.260;2023-04-24T09:21:57;384.90;128.00
49052;DHT22;34866;48.670;18.260;2023-04-24T09:24:23;409.60;128.00
49052;DHT22;34866;48.670;18.260;2023-04-24T09:26:56;409.70;128.00
49052;DHT22;34866;48.670;18.260;2023-04-24T09:29:27;409.60;128.00
49052;DHT22;34866;48.670;18.260;2023-04-24T09:31:53;409.60;128.00
49052;DHT22;34866;48.670;18.260;2023-04-24T09:34:23;384.80;128.00
49052;DHT22;34866;48.670;18.260;2023-04-24T09:36:50;384.90;128.00
49052;DHT22;34866;48.670;18.260;2023-04-24T09:39:16;384.80;128.00
49052;DHT22;34866;48.670;18.260;2023-04-24T09:41:50;384.80;128.00
49052;DHT22;34866;48.670;18.260;2023-04-24T09:44:17;384.80;128.00
49052;DHT22;34866;48.670;18.260;2023-04-24T09:46:49;384.90;128.00
49052;DHT22;34866;48.670;18.260;2023-04-24T09:49:16;384.90;128.00
49052;DHT22;34866;48.670;18.260;2023-04-24T09:51:43;384.90;128.00
49052;DHT22;34866;48.670;18.260;2023-04-24T09:56:45;409.70;128.00
49052;DHT22;34866;48.670;18.260;2023-04-24T09:59:16;409.80;128.00
49052;DHT22;34866;48.670;18.260;2023-04-24T10:01:42;409.90;128.00
49052;DHT22;34866;48.670;18.260;2023-04-24T10:04:18;409.90;128.00
49052;DHT22;34866;48.670;18.260;2023-04-24T10:06:46;409.80;128.00
49052;DHT22;34866;48.670;18.260;2023-04-24T10:09:16;409.80;128.00
49052;DHT22;34866;48.670;18.260;2023-04-24T10:11:44;409.90;128.00
49052;DHT22;34866;48.670;18.260;2023-04-24T10:14:15;409.90;128.00
49052;DHT22;34866;48.670;18.260;2023-04-24T10:16:43;410.00;128.00
49052;DHT22;34866;48.670;18.260;2023-04-24T10:19:10;410.10;128.00
49052;DHT22;34866;48.670;18.260;2023-04-24T10:21:42;409.90;128.00
49052;DHT22;34866;48.670;18.260;2023-04-24T10:24:13;409.90;128.00
49052;DHT22;34866;48.670;18.260;2023-04-24T10:26:43;409.90;128.00
49052;DHT22;34866;48.670;18.260;2023-04-24T10:29:10;410.00;128.00
49052;DHT22;34866;48.670;18.260;2023-04-24T10:31:39;410.00;128.00
49052;DHT22;34866;48.670;18.260;2023-04-24T10:34:09;410.00;128.00
49052;DHT22;34866;48.670;18.260;2023-04-24T10:36:42;410.00;128.00
49052;DHT22;34866;48.670;18.260;2023-04-24T10:39:12;409.90;128.00
49052;DHT22;34866;48.670;18.260;2023-04-24T10:41:40;409.80;128.00
49052;DHT22;34866;48.670;18.260;2023-04-24T10:44:09;409.70;128.00
49052;DHT22;34866;48.670;18.260;2023-04-24T10:46:39;409.60;128.00
49052;DHT22;34866;48.670;18.260;2023-04-24T10:49:30;384.90;128.00
49052;DHT22;34866;48.670;18.260;2023-04-24T10:52:01;384.90;128.00
49052;DHT22;34866;48.670;18.260;2023-04-24T11:00:09;384.50;128.00
49052;DHT22;34866;48.670;18.260;2023-04-24T11:02:37;384.40;128.00
49052;DHT22;34866;48.670;18.260;2023-04-24T11:05:04;384.30;128.00
49052;DHT22;34866;48.670;18.260;2023-04-24T11:10:50;384.20;128.00
49052;DHT22;34866;48.670;18.260;2023-04-24T11:13:22;384.10;128.00
49052;DHT22;34866;48.670;18.260;2023-04-24T11:16:19;384.10;128.00
49052;DHT22;34866;48.670;18.260;2023-04-24T11:18:59;384.00;128.00
49052;DHT22;34866;48.670;18.260;2023-04-24T11:21:27;359.30;128.00
49052;DHT22;34866;48.670;18.260;2023-04-24T11:26:59;359.20;128.00
49052;DHT22;34866;48.670;18.260;2023-04-24T11:29:49;359.20;128.00
49052;DHT22;34866;48.670;18.260;2023-04-24T11:35:18;359.20;537.60
49052;DHT22;34866;48.670;18.260;2023-04-24T11:37:48;359.00;204.80
49052;DHT22;34866;48.670;18.260;2023-04-24T11:40:15;359.10;384.00
49052;DHT22;34866;48.670;18.260;2023-04-24T11:42:46;359.10;128.00
49052;DHT22;34866;48.670;18.260;2023-04-24T11:45:17;359.00;128.00
49052;DHT22;34866;48.670;18.260;2023-04-24T11:47:44;359.00;128.00
49052;DHT22;34866;48.670;18.260;2023-04-24T11:50:13;359.00;128.00
49052;DHT22;34866;48.670;18.260;2023-04-24T11:52:40;359.00;128.00
49052;DHT22;34866;48.670;18.260;2023-04-24T11:55:09;359.10;128.00
49052;DHT22;34866;48.670;18.260;2023-04-24T11:57:55;359.00;128.00
49052;DHT22;34866;48.670;18.260;2023-04-24T12:00:32;359.00;128.00
49052;DHT22;34866;48.670;18.260;2023-04-24T12:03:11;358.80;128.00
49052;DHT22;34866;48.670;18.260;2023-04-24T12:05:39;358.90;128.00
49052;DHT22;34866;48.670;18.260;2023-04-24T12:08:05;358.90;128.00
49052;DHT22;34866;48.670;18.260;2023-04-24T12:10:32;358.80;128.00
49052;DHT22;34866;48.670;18.260;2023-04-24T12:12:59;358.90;128.00
49052;DHT22;34866;48.670;18.260;2023-04-24T12:15:27;358.80;128.00
49052;DHT22;34866;48.670;18.260;2023-04-24T12:17:53;358.80;128.00
49052;DHT22;34866;48.670;18.260;2023-04-24T12:22:54;358.80;128.00
49052;DHT22;34866;48.670;18.260;2023-04-24T12:25:23;358.70;128.00
49052;DHT22;34866;48.670;18.260;2023-04-24T12:30:33;358.70;128.00
49052;DHT22;34866;48.670;18.260;2023-04-24T12:33:05;358.80;128.00
49052;DHT22;34866;48.670;18.260;2023-04-24T12:35:33;358.80;128.00
49052;DHT22;34866;48.670;18.260;2023-04-24T12:38:22;358.80;128.00
49052;DHT22;34866;48.670;18.260;2023-04-24T12:40:48;358.70;128.00
49052;DHT22;34866;48.670;18.260;2023-04-24T12:43:26;358.70;128.00
49052;DHT22;34866;48.670;18.260;2023-04-24T12:45:52;358.60;128.00
49052;DHT22;34866;48.670;18.260;2023-04-24T12:48:17;358.70;128.00
49052;DHT22;34866;48.670;18.260;2023-04-24T12:50:43;358.60;128.00
49052;DHT22;34866;48.670;18.260;2023-04-24T12:53:09;358.70;128.00
49052;DHT22;34866;48.670;18.260;2023-04-24T12:55:36;358.70;128.00
49052;DHT22;34866;48.670;18.260;2023-04-24T12:58:02;358.70;128.00
49052;DHT22;34866;48.670;18.260;2023-04-24T13:00:28;358.60;128.00
49052;DHT22;34866;48.670;18.260;2023-04-24T13:02:54;358.60;128.00
49052;DHT22;34866;48.670;18.260;2023-04-24T13:05:20;358.70;128.00
49052;DHT22;34866;48.670;18.260;2023-04-24T13:07:46;358.70;128.00
49052;DHT22;34866;48.670;18.260;2023-04-24T13:10:12;358.60;128.00
49052;DHT22;34866;48.670;18.260;2023-04-24T13:12:39;358.60;128.00
49052;DHT22;34866;48.670;18.260;2023-04-24T13:15:06;358.50;128.00
49052;DHT22;34866;48.670;18.260;2023-04-24T13:17:32;358.50;128.00
49052;DHT22;34866;48.670;18.260;2023-04-24T13:19:58;358.60;128.00
49052;DHT22;34866;48.670;18.260;2023-04-24T13:22:24;358.50;128.00
49052;DHT22;34866;48.670;18.260;2023-04-24T13:24:50;358.60;128.00
49052;DHT22;34866;48.670;18.260;2023-04-24T13:27:16;358.50;128.00
49052;DHT22;34866;48.670;18.260;2023-04-24T13:29:42;358.50;128.00
49052;DHT22;34866;48.670;18.260;2023-04-24T13:32:08;358.60;128.00
49052;DHT22;34866;48.670;18.260;2023-04-24T13:34:34;358.60;128.00
49052;DHT22;34866;48.670;18.260;2023-04-24T13:37:01;358.40;128.00
49052;DHT22;34866;48.670;18.260;2023-04-24T13:39:33;358.40;128.00
49052;DHT22;34866;48.670;18.260;2023-04-24T13:41:59;358.50;128.00
49052;DHT22;34866;48.670;18.260;2023-04-24T13:44:25;358.40;128.00
49052;DHT22;34866;48.670;18.260;2023-04-24T13:46:53;358.40;128.00
49052;DHT22;34866;48.670;18.260;2023-04-24T13:49:20;333.70;128.00
49052;DHT22;34866;48.670;18.260;2023-04-24T13:51:47;333.70;128.00
49052;DHT22;34866;48.670;18.260;2023-04-24T13:54:14;358.40;128.00
49052;DHT22;34866;48.670;18.260;2023-04-24T13:56:41;333.70;128.00
49052;DHT22;34866;48.670;18.260;2023-04-24T13:59:14;333.70;128.00
49052;DHT22;34866;48.670;18.260;2023-04-24T14:01:40;333.70;128.00
49052;DHT22;34866;48.670;18.260;2023-04-24T14:04:06;333.50;128.00
49052;DHT22;34866;48.670;18.260;2023-04-24T14:07:59;333.70;128.00
49052;DHT22;34866;48.670;18.260;2023-04-24T14:10:31;333.50;128.00
49052;DHT22;34866;48.670;18.260;2023-04-24T14:12:57;333.40;128.00
49052;DHT22;34866;48.670;18.260;2023-04-24T14:15:23;333.30;128.00
49052;DHT22;34866;48.670;18.260;2023-04-24T14:17:49;333.30;153.60
49052;DHT22;34866;48.670;18.260;2023-04-24T14:20:15;333.20;128.00
49052;DHT22;34866;48.670;18.260;2023-04-24T14:22:41;333.20;512.00
49052;DHT22;34866;48.670;18.260;2023-04-24T14:25:07;333.10;128.00
49052;DHT22;34866;48.670;18.260;2023-04-24T14:27:33;333.00;1024.00
49052;DHT22;34866;48.670;18.260;2023-04-24T14:30:03;332.90;1075.20
49052;DHT22;34866;48.670;18.260;2023-04-24T14:32:29;332.90;2227.20
49052;DHT22;34866;48.670;18.260;2023-04-24T14:34:56;307.90;2304.00
49052;DHT22;34866;48.670;18.260;2023-04-24T14:37:21;308.00;2304.00
49052;DHT22;34866;48.670;18.260;2023-04-24T14:39:48;307.90;2304.00
49052;DHT22;34866;48.670;18.260;2023-04-24T14:42:14;307.90;2304.00
49052;DHT22;34866;48.670;18.260;2023-04-24T14:44:43;307.80;2304.00
49052;DHT22;34866;48.670;18.260;2023-04-24T14:47:09;307.90;2304.00
49052;DHT22;34866;48.670;18.260;2023-04-24T14:49:35;308.00;2304.00
49052;DHT22;34866;48.670;18.260;2023-04-24T14:52:00;307.80;2304.00
49052;DHT22;34866;48.670;18.260;2023-04-24T14:54:29;307.80;2304.00
49052;DHT22;34866;48.670;18.260;2023-04-24T14:56:56;307.70;2304.00
49052;DHT22;34866;48.670;18.260;2023-04-24T14:59:27;307.70;2304.00
49052;DHT22;34866;48.670;18.260;2023-04-24T15:01:53;307.80;2304.00
49052;DHT22;34866;48.670;18.260;2023-04-24T15:04:24;307.70;2304.00
49052;DHT22;34866;48.670;18.260;2023-04-24T15:06:51;307.80;2304.00
49052;DHT22;34866;48.670;18.260;2023-04-24T15:09:18;307.60;2304.00